sensor_id;sensor_type;location;lat;lon;timestamp;P1;durP1;ratioP1;P2;durP2;ratioP2
7025;SDS011;3554;42.132;24.786;2023-03-01T00:01:16;5.13;;;4.73;;
7025;SDS011;3554;42.132;24.786;2023-03-01T00:03:44;4.07;;;3.87;;
7025;SDS011;3554;42.132;24.786;2023-03-01T00:06:12;4.73;;;4.23;;
7025;SDS011;3554;42.132;24.786;2023-03-01T00:08:39;4.03;;;3.83;;
7025;SDS011;3554;42.132;24.786;2023-03-01T00:11:09;3.57;;;3.37;;
7025;SDS011;3554;42.132;24.786;2023-03-01T00:13:38;3.43;;;3.23;;
7025;SDS011;3554;42.132;24.786;2023-03-01T00:16:06;3.03;;;2.83;;
7025;SDS011;3554;42.132;24.786;2023-03-01T00:18:34;2.87;;;2.70;;
7025;SDS011;3554;42.132;24.786;2023-03-01T00:21:01;3.43;;;3.23;;
7025;SDS011;3554;42.132;24.786;2023-03-01T00:23:30;3.43;;;3.23;;
7025;SDS011;3554;42.132;24.786;2023-03-01T00:25:57;3.70;;;3.50;;
7025;SDS011;3554;42.132;24.786;2023-03-01T00:28:24;3.30;;;3.10;;
7025;SDS011;3554;42.132;24.786;2023-03-01T00:30:51;3.10;;;3.00;;
7025;SDS011;3554;42.132;24.786;2023-03-01T00:33:18;2.33;;;2.23;;
7025;SDS011;3554;42.132;24.786;2023-03-01T00:35:44;2.80;;;2.70;;
7025;SDS011;3554;42.132;24.786;2023-03-01T00:38:11;2.80;;;2.70;;
7025;SDS011;3554;42.132;24.786;2023-03-01T00:40:39;2.70;;;2.60;;
7025;SDS011;3554;42.132;24.786;2023-03-01T00:43:06;2.70;;;2.60;;
7025;SDS011;3554;42.132;24.786;2023-03-01T00:45:33;2.73;;;2.53;;
7025;SDS011;3554;42.132;24.786;2023-03-01T00:48:00;2.70;;;2.60;;
7025;SDS011;3554;42.132;24.786;2023-03-01T00:50:27;2.80;;;2.70;;
7025;SDS011;3554;42.132;24.786;2023-03-01T00:52:54;3.23;;;3.03;;
7025;SDS011;3554;42.132;24.786;2023-03-01T00:55:21;3.20;;;3.00;;
7025;SDS011;3554;42.132;24.786;2023-03-01T00:57:51;2.63;;;2.53;;
7025;SDS011;3554;42.132;24.786;2023-03-01T01:00:18;2.33;;;2.23;;
7025;SDS011;3554;42.132;24.786;2023-03-01T01:02:46;2.93;;;2.83;;
7025;SDS011;3554;42.132;24.786;2023-03-01T01:05:13;2.80;;;2.60;;
7025;SDS011;3554;42.132;24.786;2023-03-01T01:07:40;3.17;;;2.97;;
7025;SDS011;3554;42.132;24.786;2023-03-01T01:10:07;2.80;;;2.70;;
7025;SDS011;3554;42.132;24.786;2023-03-01T01:12:37;3.33;;;3.13;;
7025;SDS011;3554;42.132;24.786;2023-03-01T01:15:06;3.73;;;3.63;;
7025;SDS011;3554;42.132;24.786;2023-03-01T01:17:34;4.10;;;3.80;;
7025;SDS011;3554;42.132;24.786;2023-03-01T01:20:01;3.57;;;3.43;;
7025;SDS011;3554;42.132;24.786;2023-03-01T01:22:28;4.17;;;3.97;;
7025;SDS011;3554;42.132;24.786;2023-03-01T01:24:55;4.67;;;4.37;;
7025;SDS011;3554;42.132;24.786;2023-03-01T01:27:22;4.10;;;3.90;;
7025;SDS011;3554;42.132;24.786;2023-03-01T01:29:49;2.53;;;2.33;;
7025;SDS011;3554;42.132;24.786;2023-03-01T01:32:17;4.67;;;4.37;;
7025;SDS011;3554;42.132;24.786;2023-03-01T01:34:43;3.77;;;2.90;;
7025;SDS011;3554;42.132;24.786;2023-03-01T01:37:11;4.67;;;4.37;;
7025;SDS011;3554;42.132;24.786;2023-03-01T01:39:38;3.37;;;3.17;;
7025;SDS011;3554;42.132;24.786;2023-03-01T01:42:05;2.13;;;2.03;;
7025;SDS011;3554;42.132;24.786;2023-03-01T01:44:33;3.73;;;3.53;;
7025;SDS011;3554;42.132;24.786;2023-03-01T01:47:00;4.40;;;4.20;;
7025;SDS011;3554;42.132;24.786;2023-03-01T01:49:33;4.33;;;4.13;;
7025;SDS011;3554;42.132;24.786;2023-03-01T01:52:07;3.10;;;2.90;;
7025;SDS011;3554;42.132;24.786;2023-03-01T01:54:39;4.97;;;4.67;;
7025;SDS011;3554;42.132;24.786;2023-03-01T01:57:11;4.47;;;4.27;;
7025;SDS011;3554;42.132;24.786;2023-03-01T01:59:41;3.70;;;3.40;;
7025;SDS011;3554;42.132;24.786;2023-03-01T02:02:11;3.47;;;3.37;;
7025;SDS011;3554;42.132;24.786;2023-03-01T02:04:41;3.27;;;3.07;;
7025;SDS011;3554;42.132;24.786;2023-03-01T02:07:10;3.17;;;3.07;;
7025;SDS011;3554;42.132;24.786;2023-03-01T02:09:42;3.80;;;3.60;;
7025;SDS011;3554;42.132;24.786;2023-03-01T02:12:12;3.50;;;3.10;;
7025;SDS011;3554;42.132;24.786;2023-03-01T02:14:40;3.47;;;3.27;;
7025;SDS011;3554;42.132;24.786;2023-03-01T02:17:07;2.37;;;2.27;;
7025;SDS011;3554;42.132;24.786;2023-03-01T02:19:39;4.33;;;4.13;;
7025;SDS011;3554;42.132;24.786;2023-03-01T02:22:16;5.00;;;4.70;;
7025;SDS011;3554;42.132;24.786;2023-03-01T02:24:49;4.33;;;4.13;;
7025;SDS011;3554;42.132;24.786;2023-03-01T02:27:31;3.23;;;3.07;;
7025;SDS011;3554;42.132;24.786;2023-03-01T02:30:06;5.03;;;4.73;;
7025;SDS011;3554;42.132;24.786;2023-03-01T02:32:37;4.37;;;4.17;;
7025;SDS011;3554;42.132;24.786;2023-03-01T02:35:07;2.67;;;2.57;;
7025;SDS011;3554;42.132;24.786;2023-03-01T02:37:35;2.87;;;2.77;;
7025;SDS011;3554;42.132;24.786;2023-03-01T02:40:03;3.00;;;2.90;;
7025;SDS011;3554;42.132;24.786;2023-03-01T02:42:38;3.37;;;3.17;;
7025;SDS011;3554;42.132;24.786;2023-03-01T02:45:14;2.93;;;2.80;;
7025;SDS011;3554;42.132;24.786;2023-03-01T02:47:41;3.23;;;3.03;;
7025;SDS011;3554;42.132;24.786;2023-03-01T02:50:13;2.70;;;2.60;;
7025;SDS011;3554;42.132;24.786;2023-03-01T02:52:48;2.90;;;2.80;;
7025;SDS011;3554;42.132;24.786;2023-03-01T02:55:22;2.70;;;2.60;;
7025;SDS011;3554;42.132;24.786;2023-03-01T02:57:49;3.23;;;2.30;;
7025;SDS011;3554;42.132;24.786;2023-03-01T03:00:18;2.80;;;2.70;;
7025;SDS011;3554;42.132;24.786;2023-03-01T03:02:49;3.00;;;2.90;;
7025;SDS011;3554;42.132;24.786;2023-03-01T03:05:18;3.00;;;2.90;;
7025;SDS011;3554;42.132;24.786;2023-03-01T03:07:47;2.03;;;1.93;;
7025;SDS011;3554;42.132;24.786;2023-03-01T03:10:15;2.80;;;2.70;;
7025;SDS011;3554;42.132;24.786;2023-03-01T03:12:44;3.30;;;3.10;;
7025;SDS011;3554;42.132;24.786;2023-03-01T03:15:15;3.90;;;3.70;;
7025;SDS011;3554;42.132;24.786;2023-03-01T03:17:45;1.73;;;1.53;;
7025;SDS011;3554;42.132;24.786;2023-03-01T03:20:13;2.60;;;2.50;;
7025;SDS011;3554;42.132;24.786;2023-03-01T03:22:44;2.33;;;2.23;;
7025;SDS011;3554;42.132;24.786;2023-03-01T03:25:12;3.93;;;3.73;;
7025;SDS011;3554;42.132;24.786;2023-03-01T03:27:39;2.60;;;2.50;;
7025;SDS011;3554;42.132;24.786;2023-03-01T03:30:08;4.30;;;4.10;;
7025;SDS011;3554;42.132;24.786;2023-03-01T03:32:39;8.37;;;6.20;;
7025;SDS011;3554;42.132;24.786;2023-03-01T03:35:06;7.10;;;6.70;;
7025;SDS011;3554;42.132;24.786;2023-03-01T03:37:35;7.50;;;7.00;;
7025;SDS011;3554;42.132;24.786;2023-03-01T03:40:20;6.87;;;6.47;;
7025;SDS011;3554;42.132;24.786;2023-03-01T03:42:47;7.70;;;7.30;;
7025;SDS011;3554;42.132;24.786;2023-03-01T03:45:14;4.90;;;4.60;;
7025;SDS011;3554;42.132;24.786;2023-03-01T03:47:42;4.97;;;4.67;;
7025;SDS011;3554;42.132;24.786;2023-03-01T03:50:10;4.13;;;3.93;;
7025;SDS011;3554;42.132;24.786;2023-03-01T03:52:38;4.23;;;4.03;;
7025;SDS011;3554;42.132;24.786;2023-03-01T03:55:05;3.77;;;3.47;;
7025;SDS011;3554;42.132;24.786;2023-03-01T03:57:36;3.43;;;3.17;;
7025;SDS011;3554;42.132;24.786;2023-03-01T04:00:03;3.00;;;2.80;;
7025;SDS011;3554;42.132;24.786;2023-03-01T04:02:37;3.60;;;3.30;;
7025;SDS011;3554;42.132;24.786;2023-03-01T04:05:07;3.80;;;3.60;;
7025;SDS011;3554;42.132;24.786;2023-03-01T04:07:35;3.57;;;3.37;;
7025;SDS011;3554;42.132;24.786;2023-03-01T04:10:04;3.40;;;3.20;;
7025;SDS011;3554;42.132;24.786;2023-03-01T04:12:33;3.00;;;2.83;;
7025;SDS011;3554;42.132;24.786;2023-03-01T04:15:01;3.40;;;3.13;;
7025;SDS011;3554;42.132;24.786;2023-03-01T04:17:37;3.47;;;3.27;;
7025;SDS011;3554;42.132;24.786;2023-03-01T04:20:07;3.07;;;2.90;;
7025;SDS011;3554;42.132;24.786;2023-03-01T04:22:36;3.10;;;3.00;;
7025;SDS011;3554;42.132;24.786;2023-03-01T04:25:03;3.43;;;3.23;;
7025;SDS011;3554;42.132;24.786;2023-03-01T04:27:31;3.60;;;3.40;;
7025;SDS011;3554;42.132;24.786;2023-03-01T04:29:58;3.33;;;3.23;;
7025;SDS011;3554;42.132;24.786;2023-03-01T04:32:25;3.80;;;3.60;;
7025;SDS011;3554;42.132;24.786;2023-03-01T04:34:52;3.93;;;3.63;;
7025;SDS011;3554;42.132;24.786;2023-03-01T04:37:20;3.80;;;3.47;;
7025;SDS011;3554;42.132;24.786;2023-03-01T04:39:47;3.70;;;3.50;;
7025;SDS011;3554;42.132;24.786;2023-03-01T04:42:14;4.53;;;4.33;;
7025;SDS011;3554;42.132;24.786;2023-03-01T04:44:41;2.53;;;2.37;;
7025;SDS011;3554;42.132;24.786;2023-03-01T04:47:08;3.10;;;2.90;;
7025;SDS011;3554;42.132;24.786;2023-03-01T04:49:35;4.27;;;4.07;;
7025;SDS011;3554;42.132;24.786;2023-03-01T04:52:02;4.03;;;3.73;;
7025;SDS011;3554;42.132;24.786;2023-03-01T04:54:32;4.97;;;4.67;;
7025;SDS011;3554;42.132;24.786;2023-03-01T04:57:00;4.97;;;3.67;;
7025;SDS011;3554;42.132;24.786;2023-03-01T04:59:26;4.10;;;3.90;;
7025;SDS011;3554;42.132;24.786;2023-03-01T05:01:54;3.57;;;3.37;;
7025;SDS011;3554;42.132;24.786;2023-03-01T05:04:22;5.27;;;4.90;;
7025;SDS011;3554;42.132;24.786;2023-03-01T05:06:49;4.20;;;4.00;;
7025;SDS011;3554;42.132;24.786;2023-03-01T05:09:18;3.20;;;3.00;;
7025;SDS011;3554;42.132;24.786;2023-03-01T05:11:47;2.90;;;2.80;;
7025;SDS011;3554;42.132;24.786;2023-03-01T05:14:13;5.27;;;3.80;;
7025;SDS011;3554;42.132;24.786;2023-03-01T05:16:40;5.17;;;4.53;;
7025;SDS011;3554;42.132;24.786;2023-03-01T05:19:07;4.97;;;4.60;;
7025;SDS011;3554;42.132;24.786;2023-03-01T05:21:40;5.10;;;4.80;;
7025;SDS011;3554;42.132;24.786;2023-03-01T05:24:21;4.50;;;4.20;;
7025;SDS011;3554;42.132;24.786;2023-03-01T05:26:50;5.40;;;5.00;;
7025;SDS011;3554;42.132;24.786;2023-03-01T05:29:18;3.80;;;3.60;;
7025;SDS011;3554;42.132;24.786;2023-03-01T05:31:50;5.93;;;5.53;;
7025;SDS011;3554;42.132;24.786;2023-03-01T05:34:17;5.50;;;5.20;;
7025;SDS011;3554;42.132;24.786;2023-03-01T05:36:44;6.43;;;6.03;;
7025;SDS011;3554;42.132;24.786;2023-03-01T05:39:11;5.43;;;5.13;;
7025;SDS011;3554;42.132;24.786;2023-03-01T05:41:37;4.27;;;4.07;;
7025;SDS011;3554;42.132;24.786;2023-03-01T05:44:07;5.30;;;5.00;;
7025;SDS011;3554;42.132;24.786;2023-03-01T05:46:33;5.40;;;5.10;;
7025;SDS011;3554;42.132;24.786;2023-03-01T05:49:00;5.33;;;5.00;;
7025;SDS011;3554;42.132;24.786;2023-03-01T05:51:27;6.47;;;4.80;;
7025;SDS011;3554;42.132;24.786;2023-03-01T05:53:54;5.13;;;4.83;;
7025;SDS011;3554;42.132;24.786;2023-03-01T05:56:21;6.37;;;6.03;;
7025;SDS011;3554;42.132;24.786;2023-03-01T05:58:48;6.17;;;5.40;;
7025;SDS011;3554;42.132;24.786;2023-03-01T06:01:16;6.37;;;5.90;;
7025;SDS011;3554;42.132;24.786;2023-03-01T06:03:43;7.03;;;6.53;;
7025;SDS011;3554;42.132;24.786;2023-03-01T06:06:10;5.80;;;5.40;;
7025;SDS011;3554;42.132;24.786;2023-03-01T06:08:37;5.47;;;5.17;;
7025;SDS011;3554;42.132;24.786;2023-03-01T06:11:04;5.93;;;5.50;;
7025;SDS011;3554;42.132;24.786;2023-03-01T06:13:32;5.37;;;5.07;;
7025;SDS011;3554;42.132;24.786;2023-03-01T06:15:58;5.23;;;4.93;;
7025;SDS011;3554;42.132;24.786;2023-03-01T06:18:27;4.87;;;4.60;;
7025;SDS011;3554;42.132;24.786;2023-03-01T06:20:54;4.97;;;4.70;;
7025;SDS011;3554;42.132;24.786;2023-03-01T06:23:21;5.37;;;5.00;;
7025;SDS011;3554;42.132;24.786;2023-03-01T06:25:48;5.10;;;4.90;;
7025;SDS011;3554;42.132;24.786;2023-03-01T06:28:15;4.67;;;4.20;;
7025;SDS011;3554;42.132;24.786;2023-03-01T06:30:42;4.23;;;3.93;;
7025;SDS011;3554;42.132;24.786;2023-03-01T06:33:08;4.70;;;4.40;;
7025;SDS011;3554;42.132;24.786;2023-03-01T06:35:37;4.43;;;4.07;;
7025;SDS011;3554;42.132;24.786;2023-03-01T06:38:04;3.90;;;3.70;;
7025;SDS011;3554;42.132;24.786;2023-03-01T06:40:32;4.30;;;4.10;;
7025;SDS011;3554;42.132;24.786;2023-03-01T06:43:00;3.30;;;3.10;;
7025;SDS011;3554;42.132;24.786;2023-03-01T06:45:27;3.90;;;3.17;;
7025;SDS011;3554;42.132;24.786;2023-03-01T06:48:00;3.63;;;3.33;;
7025;SDS011;3554;42.132;24.786;2023-03-01T06:50:28;2.57;;;2.47;;
7025;SDS011;3554;42.132;24.786;2023-03-01T06:52:56;3.03;;;2.83;;
7025;SDS011;3554;42.132;24.786;2023-03-01T06:55:23;3.70;;;3.47;;
7025;SDS011;3554;42.132;24.786;2023-03-01T06:57:53;3.40;;;3.20;;
7025;SDS011;3554;42.132;24.786;2023-03-01T07:00:21;4.10;;;3.33;;
7025;SDS011;3554;42.132;24.786;2023-03-01T07:02:49;3.00;;;2.53;;
7025;SDS011;3554;42.132;24.786;2023-03-01T07:05:16;5.53;;;4.07;;
7025;SDS011;3554;42.132;24.786;2023-03-01T07:07:43;4.40;;;4.10;;
7025;SDS011;3554;42.132;24.786;2023-03-01T07:10:11;4.40;;;4.20;;
7025;SDS011;3554;42.132;24.786;2023-03-01T07:12:38;4.80;;;4.40;;
7025;SDS011;3554;42.132;24.786;2023-03-01T07:15:07;6.17;;;5.67;;
7025;SDS011;3554;42.132;24.786;2023-03-01T07:17:35;5.30;;;4.37;;
7025;SDS011;3554;42.132;24.786;2023-03-01T07:20:02;5.53;;;5.10;;
7025;SDS011;3554;42.132;24.786;2023-03-01T07:22:30;6.23;;;5.87;;
7025;SDS011;3554;42.132;24.786;2023-03-01T07:24:58;2.30;;;2.20;;
7025;SDS011;3554;42.132;24.786;2023-03-01T07:27:26;5.80;;;5.50;;
7025;SDS011;3554;42.132;24.786;2023-03-01T07:29:52;4.97;;;4.73;;
7025;SDS011;3554;42.132;24.786;2023-03-01T07:32:19;4.67;;;4.37;;
7025;SDS011;3554;42.132;24.786;2023-03-01T07:34:46;5.33;;;4.77;;
7025;SDS011;3554;42.132;24.786;2023-03-01T07:37:12;3.53;;;3.33;;
7025;SDS011;3554;42.132;24.786;2023-03-01T07:39:40;2.77;;;2.67;;
7025;SDS011;3554;42.132;24.786;2023-03-01T07:42:07;3.50;;;3.30;;
7025;SDS011;3554;42.132;24.786;2023-03-01T07:44:35;3.87;;;3.67;;
7025;SDS011;3554;42.132;24.786;2023-03-01T07:47:02;3.70;;;3.50;;
7025;SDS011;3554;42.132;24.786;2023-03-01T07:49:29;4.13;;;3.93;;
7025;SDS011;3554;42.132;24.786;2023-03-01T07:51:56;4.73;;;4.53;;
7025;SDS011;3554;42.132;24.786;2023-03-01T07:54:23;4.90;;;4.60;;
7025;SDS011;3554;42.132;24.786;2023-03-01T07:56:51;5.07;;;4.77;;
7025;SDS011;3554;42.132;24.786;2023-03-01T07:59:19;4.87;;;4.57;;
7025;SDS011;3554;42.132;24.786;2023-03-01T08:01:48;2.93;;;2.83;;
7025;SDS011;3554;42.132;24.786;2023-03-01T08:04:14;3.47;;;3.27;;
7025;SDS011;3554;42.132;24.786;2023-03-01T08:06:41;2.80;;;2.60;;
7025;SDS011;3554;42.132;24.786;2023-03-01T08:09:08;3.00;;;2.70;;
7025;SDS011;3554;42.132;24.786;2023-03-01T08:11:35;4.17;;;2.70;;
7025;SDS011;3554;42.132;24.786;2023-03-01T08:14:01;3.17;;;2.47;;
7025;SDS011;3554;42.132;24.786;2023-03-01T08:16:28;2.30;;;1.97;;
7025;SDS011;3554;42.132;24.786;2023-03-01T08:18:57;1.90;;;1.80;;
7025;SDS011;3554;42.132;24.786;2023-03-01T08:21:26;1.33;;;1.33;;
7025;SDS011;3554;42.132;24.786;2023-03-01T08:23:53;1.70;;;1.60;;
7025;SDS011;3554;42.132;24.786;2023-03-01T08:26:20;1.93;;;1.40;;
7025;SDS011;3554;42.132;24.786;2023-03-01T08:28:48;1.10;;;1.10;;
7025;SDS011;3554;42.132;24.786;2023-03-01T08:31:17;1.60;;;1.50;;
7025;SDS011;3554;42.132;24.786;2023-03-01T08:33:46;1.77;;;1.20;;
7025;SDS011;3554;42.132;24.786;2023-03-01T08:36:18;1.17;;;1.17;;
7025;SDS011;3554;42.132;24.786;2023-03-01T08:38:46;1.47;;;1.37;;
7025;SDS011;3554;42.132;24.786;2023-03-01T08:41:13;1.40;;;1.30;;
7025;SDS011;3554;42.132;24.786;2023-03-01T08:43:40;1.40;;;1.30;;
7025;SDS011;3554;42.132;24.786;2023-03-01T08:46:07;1.73;;;1.60;;
7025;SDS011;3554;42.132;24.786;2023-03-01T08:48:34;1.83;;;1.73;;
7025;SDS011;3554;42.132;24.786;2023-03-01T08:51:06;2.23;;;2.13;;
7025;SDS011;3554;42.132;24.786;2023-03-01T08:53:36;1.13;;;1.13;;
7025;SDS011;3554;42.132;24.786;2023-03-01T08:56:02;1.20;;;1.20;;
7025;SDS011;3554;42.132;24.786;2023-03-01T08:58:30;1.40;;;1.40;;
7025;SDS011;3554;42.132;24.786;2023-03-01T09:00:57;1.10;;;1.00;;
7025;SDS011;3554;42.132;24.786;2023-03-01T09:03:24;1.03;;;1.03;;
7025;SDS011;3554;42.132;24.786;2023-03-01T09:05:52;1.10;;;1.10;;
7025;SDS011;3554;42.132;24.786;2023-03-01T09:08:25;1.33;;;1.33;;
7025;SDS011;3554;42.132;24.786;2023-03-01T09:10:53;1.20;;;1.10;;
7025;SDS011;3554;42.132;24.786;2023-03-01T09:13:20;1.50;;;1.40;;
7025;SDS011;3554;42.132;24.786;2023-03-01T09:15:48;0.80;;;0.80;;
7025;SDS011;3554;42.132;24.786;2023-03-01T09:18:15;0.90;;;0.90;;
7025;SDS011;3554;42.132;24.786;2023-03-01T09:20:42;1.00;;;1.00;;
7025;SDS011;3554;42.132;24.786;2023-03-01T09:23:09;0.83;;;0.83;;
7025;SDS011;3554;42.132;24.786;2023-03-01T09:25:35;1.40;;;1.30;;
7025;SDS011;3554;42.132;24.786;2023-03-01T09:28:04;1.60;;;1.50;;
7025;SDS011;3554;42.132;24.786;2023-03-01T09:30:30;1.13;;;1.13;;
7025;SDS011;3554;42.132;24.786;2023-03-01T09:32:57;2.10;;;2.00;;
7025;SDS011;3554;42.132;24.786;2023-03-01T09:35:24;1.63;;;1.30;;
7025;SDS011;3554;42.132;24.786;2023-03-01T09:37:51;1.10;;;1.10;;
7025;SDS011;3554;42.132;24.786;2023-03-01T09:42:47;1.40;;;1.30;;
7025;SDS011;3554;42.132;24.786;2023-03-01T09:45:23;1.80;;;1.70;;
7025;SDS011;3554;42.132;24.786;2023-03-01T09:47:54;1.23;;;1.23;;
7025;SDS011;3554;42.132;24.786;2023-03-01T09:50:22;1.90;;;1.80;;
7025;SDS011;3554;42.132;24.786;2023-03-01T09:53:00;1.87;;;1.73;;
7025;SDS011;3554;42.132;24.786;2023-03-01T09:55:30;1.67;;;1.67;;
7025;SDS011;3554;42.132;24.786;2023-03-01T09:58:00;1.63;;;1.53;;
7025;SDS011;3554;42.132;24.786;2023-03-01T10:00:41;1.73;;;1.63;;
7025;SDS011;3554;42.132;24.786;2023-03-01T10:03:12;1.37;;;1.27;;
7025;SDS011;3554;42.132;24.786;2023-03-01T10:05:47;1.30;;;1.30;;
7025;SDS011;3554;42.132;24.786;2023-03-01T10:08:27;1.10;;;1.10;;
7025;SDS011;3554;42.132;24.786;2023-03-01T10:11:01;2.03;;;1.40;;
7025;SDS011;3554;42.132;24.786;2023-03-01T10:13:32;1.90;;;1.50;;
7025;SDS011;3554;42.132;24.786;2023-03-01T10:16:11;1.33;;;1.33;;
7025;SDS011;3554;42.132;24.786;2023-03-01T10:18:41;2.60;;;2.00;;
7025;SDS011;3554;42.132;24.786;2023-03-01T10:21:14;1.80;;;1.70;;
7025;SDS011;3554;42.132;24.786;2023-03-01T10:23:43;2.43;;;2.33;;
7025;SDS011;3554;42.132;24.786;2023-03-01T10:26:20;1.90;;;1.80;;
7025;SDS011;3554;42.132;24.786;2023-03-01T10:28:59;0.87;;;0.87;;
7025;SDS011;3554;42.132;24.786;2023-03-01T10:31:35;1.70;;;1.60;;
7025;SDS011;3554;42.132;24.786;2023-03-01T10:34:08;1.70;;;1.20;;
7025;SDS011;3554;42.132;24.786;2023-03-01T10:36:36;1.43;;;1.33;;
7025;SDS011;3554;42.132;24.786;2023-03-01T10:39:10;1.60;;;1.50;;
7025;SDS011;3554;42.132;24.786;2023-03-01T10:41:44;1.20;;;1.10;;
7025;SDS011;3554;42.132;24.786;2023-03-01T10:44:37;0.80;;;0.80;;
7025;SDS011;3554;42.132;24.786;2023-03-01T10:47:12;1.83;;;1.73;;
7025;SDS011;3554;42.132;24.786;2023-03-01T10:49:49;1.67;;;1.57;;
7025;SDS011;3554;42.132;24.786;2023-03-01T10:52:19;1.67;;;1.57;;
7025;SDS011;3554;42.132;24.786;2023-03-01T10:54:53;3.00;;;2.80;;
7025;SDS011;3554;42.132;24.786;2023-03-01T10:57:28;2.93;;;2.73;;
7025;SDS011;3554;42.132;24.786;2023-03-01T11:00:10;1.67;;;1.57;;
7025;SDS011;3554;42.132;24.786;2023-03-01T11:02:45;2.00;;;1.90;;
7025;SDS011;3554;42.132;24.786;2023-03-01T11:05:17;4.80;;;3.13;;
7025;SDS011;3554;42.132;24.786;2023-03-01T11:07:49;2.20;;;2.00;;
7025;SDS011;3554;42.132;24.786;2023-03-01T11:10:19;3.80;;;1.87;;
7025;SDS011;3554;42.132;24.786;2023-03-01T11:12:47;2.13;;;1.93;;
7025;SDS011;3554;42.132;24.786;2023-03-01T11:15:24;1.70;;;1.60;;
7025;SDS011;3554;42.132;24.786;2023-03-01T11:17:54;3.47;;;3.27;;
7025;SDS011;3554;42.132;24.786;2023-03-01T11:20:27;1.83;;;1.73;;
7025;SDS011;3554;42.132;24.786;2023-03-01T11:22:58;1.70;;;1.60;;
7025;SDS011;3554;42.132;24.786;2023-03-01T11:25:29;5.87;;;1.57;;
7025;SDS011;3554;42.132;24.786;2023-03-01T11:27:58;4.10;;;1.53;;
7025;SDS011;3554;42.132;24.786;2023-03-01T11:30:29;2.13;;;1.93;;
7025;SDS011;3554;42.132;24.786;2023-03-01T11:33:03;2.27;;;2.17;;
7025;SDS011;3554;42.132;24.786;2023-03-01T11:35:35;1.00;;;1.00;;
7025;SDS011;3554;42.132;24.786;2023-03-01T11:38:12;1.33;;;1.23;;
7025;SDS011;3554;42.132;24.786;2023-03-01T11:40:45;0.70;;;0.70;;
7025;SDS011;3554;42.132;24.786;2023-03-01T11:43:18;0.90;;;0.90;;
7025;SDS011;3554;42.132;24.786;2023-03-01T11:45:57;1.30;;;0.90;;
7025;SDS011;3554;42.132;24.786;2023-03-01T11:48:45;1.60;;;1.50;;
7025;SDS011;3554;42.132;24.786;2023-03-01T11:51:21;1.70;;;1.60;;
7025;SDS011;3554;42.132;24.786;2023-03-01T11:53:58;2.10;;;2.00;;
7025;SDS011;3554;42.132;24.786;2023-03-01T11:56:34;3.47;;;3.20;;
7025;SDS011;3554;42.132;24.786;2023-03-01T11:59:08;3.67;;;1.50;;
7025;SDS011;3554;42.132;24.786;2023-03-01T12:02:18;1.43;;;1.37;;
7025;SDS011;3554;42.132;24.786;2023-03-01T12:05:10;2.20;;;2.10;;
7025;SDS011;3554;42.132;24.786;2023-03-01T12:07:52;2.13;;;2.03;;
7025;SDS011;3554;42.132;24.786;2023-03-01T12:10:26;2.53;;;2.43;;
7025;SDS011;3554;42.132;24.786;2023-03-01T12:12:58;2.80;;;2.13;;
7025;SDS011;3554;42.132;24.786;2023-03-01T12:15:38;2.17;;;1.97;;
7025;SDS011;3554;42.132;24.786;2023-03-01T12:18:13;2.63;;;2.07;;
7025;SDS011;3554;42.132;24.786;2023-03-01T12:21:10;1.87;;;1.77;;
7025;SDS011;3554;42.132;24.786;2023-03-01T12:23:57;3.10;;;2.90;;
7025;SDS011;3554;42.132;24.786;2023-03-01T12:26:49;2.20;;;2.10;;
7025;SDS011;3554;42.132;24.786;2023-03-01T12:29:30;4.00;;;3.73;;
7025;SDS011;3554;42.132;24.786;2023-03-01T12:32:06;15.70;;;14.10;;
7025;SDS011;3554;42.132;24.786;2023-03-01T12:34:47;13.30;;;12.00;;
7025;SDS011;3554;42.132;24.786;2023-03-01T12:37:47;11.03;;;10.00;;
7025;SDS011;3554;42.132;24.786;2023-03-01T12:40:33;9.27;;;8.57;;
7025;SDS011;3554;42.132;24.786;2023-03-01T12:43:17;14.67;;;13.23;;
7025;SDS011;3554;42.132;24.786;2023-03-01T12:46:03;11.97;;;11.07;;
7025;SDS011;3554;42.132;24.786;2023-03-01T12:48:43;11.07;;;10.00;;
7025;SDS011;3554;42.132;24.786;2023-03-01T12:51:18;17.43;;;15.63;;
7025;SDS011;3554;42.132;24.786;2023-03-01T12:53:51;4.97;;;4.67;;
7025;SDS011;3554;42.132;24.786;2023-03-01T12:56:21;4.97;;;4.63;;
7025;SDS011;3554;42.132;24.786;2023-03-01T12:58:51;3.60;;;3.40;;
7025;SDS011;3554;42.132;24.786;2023-03-01T13:01:28;2.40;;;2.30;;
7025;SDS011;3554;42.132;24.786;2023-03-01T13:04:05;2.00;;;1.90;;
7025;SDS011;3554;42.132;24.786;2023-03-01T13:06:46;1.53;;;1.47;;
7025;SDS011;3554;42.132;24.786;2023-03-01T13:09:24;0.83;;;0.83;;
7025;SDS011;3554;42.132;24.786;2023-03-01T13:11:58;2.20;;;2.00;;
7025;SDS011;3554;42.132;24.786;2023-03-01T13:14:44;2.00;;;1.90;;
7025;SDS011;3554;42.132;24.786;2023-03-01T13:17:31;2.07;;;1.97;;
7025;SDS011;3554;42.132;24.786;2023-03-01T13:20:11;2.50;;;2.30;;
7025;SDS011;3554;42.132;24.786;2023-03-01T13:22:39;2.90;;;2.70;;
7025;SDS011;3554;42.132;24.786;2023-03-01T13:25:15;3.93;;;2.60;;
7025;SDS011;3554;42.132;24.786;2023-03-01T13:27:45;4.07;;;2.30;;
7025;SDS011;3554;42.132;24.786;2023-03-01T13:33:32;2.93;;;2.83;;
7025;SDS011;3554;42.132;24.786;2023-03-01T13:36:07;4.57;;;4.27;;
7025;SDS011;3554;42.132;24.786;2023-03-01T13:38:36;3.47;;;3.17;;
7025;SDS011;3554;42.132;24.786;2023-03-01T13:41:07;3.70;;;3.07;;
7025;SDS011;3554;42.132;24.786;2023-03-01T13:43:35;3.43;;;3.13;;
7025;SDS011;3554;42.132;24.786;2023-03-01T13:46:08;4.53;;;4.23;;
7025;SDS011;3554;42.132;24.786;2023-03-01T13:48:37;7.23;;;6.73;;
7025;SDS011;3554;42.132;24.786;2023-03-01T13:51:07;5.93;;;5.17;;
7025;SDS011;3554;42.132;24.786;2023-03-01T13:53:36;8.07;;;7.53;;
7025;SDS011;3554;42.132;24.786;2023-03-01T13:56:11;8.23;;;7.53;;
7025;SDS011;3554;42.132;24.786;2023-03-01T13:58:47;7.90;;;7.40;;
7025;SDS011;3554;42.132;24.786;2023-03-01T14:01:27;6.67;;;5.40;;
7025;SDS011;3554;42.132;24.786;2023-03-01T14:03:55;4.60;;;3.60;;
7025;SDS011;3554;42.132;24.786;2023-03-01T14:06:23;4.40;;;2.80;;
7025;SDS011;3554;42.132;24.786;2023-03-01T14:08:52;2.60;;;2.40;;
7025;SDS011;3554;42.132;24.786;2023-03-01T14:11:33;3.63;;;2.90;;
7025;SDS011;3554;42.132;24.786;2023-03-01T14:14:18;2.90;;;2.70;;
7025;SDS011;3554;42.132;24.786;2023-03-01T14:16:59;3.23;;;2.97;;
7025;SDS011;3554;42.132;24.786;2023-03-01T14:19:37;3.27;;;3.07;;
7025;SDS011;3554;42.132;24.786;2023-03-01T14:22:11;2.93;;;2.70;;
7025;SDS011;3554;42.132;24.786;2023-03-01T14:24:46;2.57;;;2.47;;
7025;SDS011;3554;42.132;24.786;2023-03-01T14:27:16;3.10;;;3.00;;
7025;SDS011;3554;42.132;24.786;2023-03-01T14:29:44;2.90;;;2.80;;
7025;SDS011;3554;42.132;24.786;2023-03-01T14:32:24;3.23;;;2.03;;
7025;SDS011;3554;42.132;24.786;2023-03-01T14:34:52;2.63;;;2.53;;
7025;SDS011;3554;42.132;24.786;2023-03-01T14:37:20;2.60;;;2.40;;
7025;SDS011;3554;42.132;24.786;2023-03-01T14:39:49;3.73;;;2.27;;
7025;SDS011;3554;42.132;24.786;2023-03-01T14:42:17;3.03;;;2.83;;
7025;SDS011;3554;42.132;24.786;2023-03-01T14:44:46;3.17;;;2.60;;
7025;SDS011;3554;42.132;24.786;2023-03-01T14:47:15;2.50;;;2.40;;
7025;SDS011;3554;42.132;24.786;2023-03-01T14:49:50;2.27;;;2.17;;
7025;SDS011;3554;42.132;24.786;2023-03-01T14:52:23;2.80;;;2.60;;
7025;SDS011;3554;42.132;24.786;2023-03-01T14:54:59;2.40;;;2.30;;
7025;SDS011;3554;42.132;24.786;2023-03-01T14:57:29;2.67;;;2.57;;
7025;SDS011;3554;42.132;24.786;2023-03-01T14:59:57;3.97;;;2.87;;
7025;SDS011;3554;42.132;24.786;2023-03-01T15:02:26;2.80;;;2.60;;
7025;SDS011;3554;42.132;24.786;2023-03-01T15:04:55;2.50;;;2.40;;
7025;SDS011;3554;42.132;24.786;2023-03-01T15:07:26;4.33;;;2.60;;
7025;SDS011;3554;42.132;24.786;2023-03-01T15:09:56;2.80;;;2.60;;
7025;SDS011;3554;42.132;24.786;2023-03-01T15:12:25;3.73;;;2.00;;
7025;SDS011;3554;42.132;24.786;2023-03-01T15:17:53;2.23;;;2.13;;
7025;SDS011;3554;42.132;24.786;2023-03-01T15:20:22;2.57;;;2.37;;
7025;SDS011;3554;42.132;24.786;2023-03-01T15:22:52;4.07;;;2.60;;
7025;SDS011;3554;42.132;24.786;2023-03-01T15:25:21;2.20;;;2.10;;
7025;SDS011;3554;42.132;24.786;2023-03-01T15:27:52;4.20;;;3.30;;
7025;SDS011;3554;42.132;24.786;2023-03-01T15:30:21;2.83;;;2.63;;